Time;durP1;ratioP1;P1;durP2;ratioP2;P2;SDS_P1;SDS_P2;PMS_P1;PMS_P2;Temp;Humidity;BMP_temperature;BMP_pressure;BME280_temperature;BME280_humidity;BME280_pressure;Samples;Min_cycle;Max_cycle;Signal;HPM_P1;HPM_P2
2023/04/21 00:02:26;;;;;;;22.17;15.68;;;10.30;99.90;;;;;;6197884;23;20414;-95
2023/04/21 00:04:52;;;;;;;20.05;14.75;;;10.30;99.90;;;;;;6223423;23;20087;-94
2023/04/21 00:07:19;;;;;;;21.75;14.35;;;10.30;99.90;;;;;;6196004;23;20091;-95
2023/04/21 00:09:44;;;;;;;21.88;15.40;;;10.30;99.90;;;;;;6200097;23;20092;-95
2023/04/21 00:12:10;;;;;;;19.52;14.02;;;10.30;99.90;;;;;;6205603;23;20023;-93
2023/04/21 00:14:36;;;;;;;21.13;14.93;;;10.30;99.90;;;;;;6200210;23;20384;-95
2023/04/21 00:17:02;;;;;;;20.00;14.15;;;10.30;99.90;;;;;;6223641;23;20016;-94
2023/04/21 00:19:28;;;;;;;19.52;13.77;;;10.30;99.90;;;;;;6201639;23;20477;-95
2023/04/21 00:21:57;;;;;;;18.10;14.15;;;10.30;99.90;;;;;;6195199;23;20013;-96
2023/04/21 00:24:24;;;;;;;22.75;13.88;;;10.30;99.90;;;;;;6221480;23;20013;-96
2023/04/21 00:26:50;;;;;;;20.08;13.70;;;10.30;99.90;;;;;;6194437;23;20028;-95
2023/04/21 00:29:15;;;;;;;18.88;14.02;;;10.30;99.90;;;;;;6194781;23;20099;-96
2023/04/21 00:31:41;;;;;;;18.95;13.40;;;10.30;99.90;;;;;;6219996;23;20013;-95
2023/04/21 00:34:07;;;;;;;20.00;13.55;;;10.30;99.90;;;;;;6220393;23;20106;-94
2023/04/21 00:36:32;;;;;;;20.38;13.20;;;10.30;99.90;;;;;;6223422;23;20016;-95
2023/04/21 00:38:58;;;;;;;19.60;13.65;;;10.30;99.90;;;;;;6197270;23;20476;-95
2023/04/21 00:41:24;;;;;;;18.85;12.85;;;10.30;99.90;;;;;;6198750;23;20012;-96
2023/04/21 00:44:03;;;;;;;19.92;13.93;;;10.40;99.90;;;;;;6224940;23;20020;-95
2023/04/21 00:46:29;;;;;;;20.73;13.68;;;10.30;99.90;;;;;;6196756;23;20025;-95
2023/04/21 00:48:55;;;;;;;18.13;13.07;;;10.30;99.90;;;;;;6201017;23;20445;-95
2023/04/21 00:51:24;;;;;;;20.48;12.88;;;10.30;99.90;;;;;;6203645;23;20062;-95
2023/04/21 00:53:51;;;;;;;19.17;13.00;;;10.30;99.90;;;;;;6199472;23;20013;-95
2023/04/21 00:56:17;;;;;;;20.40;12.75;;;10.20;99.90;;;;;;6223962;23;20020;-94
2023/04/21 00:58:44;;;;;;;17.25;13.10;;;10.20;99.90;;;;;;6195523;23;20013;-96
2023/04/21 01:01:11;;;;;;;20.85;13.13;;;10.20;99.90;;;;;;6194993;23;20091;-94
2023/04/21 01:03:36;;;;;;;18.67;12.43;;;10.20;99.90;;;;;;6218798;23;20020;-95
2023/04/21 01:06:02;;;;;;;18.98;12.93;;;10.20;99.90;;;;;;6221850;23;20009;-94
2023/04/21 01:08:28;;;;;;;21.23;12.95;;;10.10;99.90;;;;;;6197277;23;20043;-96
2023/04/21 01:10:54;;;;;;;18.33;12.13;;;10.20;99.90;;;;;;6219197;23;20017;-93
2023/04/21 01:13:21;;;;;;;17.98;11.73;;;10.10;99.90;;;;;;6192664;23;20013;-94
2023/04/21 01:15:47;;;;;;;17.92;12.00;;;10.10;99.90;;;;;;6220674;23;20395;-95
2023/04/21 01:18:13;;;;;;;19.85;12.30;;;10.10;99.90;;;;;;6194148;23;20342;-94
2023/04/21 01:20:39;;;;;;;16.85;11.98;;;10.10;99.90;;;;;;6193099;23;20020;-95
2023/04/21 01:23:05;;;;;;;20.45;12.13;;;10.10;99.90;;;;;;6220372;23;20020;-94
2023/04/21 01:25:31;;;;;;;16.08;11.32;;;10.10;99.90;;;;;;6194978;23;20016;-95
2023/04/21 01:27:57;;;;;;;16.27;11.70;;;10.00;99.90;;;;;;6198876;23;20147;-95
2023/04/21 01:30:23;;;;;;;17.45;11.80;;;10.00;99.90;;;;;;6194287;23;20020;-95
2023/04/21 01:32:49;;;;;;;15.95;11.68;;;10.00;99.90;;;;;;6223685;23;20023;-95
2023/04/21 01:35:14;;;;;;;22.48;12.30;;;10.00;99.90;;;;;;6226107;23;20464;-94
2023/04/21 01:37:40;;;;;;;18.15;11.55;;;10.00;99.90;;;;;;6195517;23;20511;-95
2023/04/21 01:40:08;;;;;;;19.75;11.30;;;10.00;99.90;;;;;;6198206;23;20016;-96
2023/04/21 01:42:39;;;;;;;15.95;10.73;;;9.90;99.90;;;;;;6225070;23;20066;-95
2023/04/21 01:45:05;;;;;;;19.02;10.75;;;9.90;99.90;;;;;;6221899;23;20019;-95
2023/04/21 01:47:31;;;;;;;21.15;11.38;;;9.90;99.90;;;;;;6222869;23;20039;-95
2023/04/21 01:49:57;;;;;;;16.95;11.27;;;9.90;99.90;;;;;;6197173;23;20453;-95
2023/04/21 01:52:23;;;;;;;19.52;10.98;;;9.90;99.90;;;;;;6198195;23;20021;-95
2023/04/21 01:54:48;;;;;;;16.63;11.43;;;9.80;99.90;;;;;;6198065;23;20009;-95
2023/04/21 01:57:15;;;;;;;17.10;10.73;;;9.80;99.90;;;;;;6199886;23;20020;-94
2023/04/21 01:59:41;;;;;;;18.00;11.70;;;9.80;99.90;;;;;;6221191;23;20342;-94
2023/04/21 02:02:06;;;;;;;18.00;11.23;;;9.80;99.90;;;;;;6195834;23;20032;-95
2023/04/21 02:04:32;;;;;;;20.08;11.40;;;9.80;99.90;;;;;;6194302;23;20069;-95
2023/04/21 02:06:58;;;;;;;17.83;11.00;;;9.80;99.90;;;;;;6194986;23;20048;-95
2023/04/21 02:09:23;;;;;;;15.70;10.88;;;9.80;99.90;;;;;;6195051;23;20036;-96
2023/04/21 02:11:49;;;;;;;17.33;10.68;;;9.70;99.90;;;;;;6193511;23;20516;-94
2023/04/21 02:14:15;;;;;;;17.25;11.23;;;9.70;99.90;;;;;;6224151;23;20013;-95
2023/04/21 02:16:40;;;;;;;19.10;11.60;;;9.70;99.90;;;;;;6197483;23;20079;-95
2023/04/21 02:19:06;;;;;;;16.23;10.85;;;9.70;99.90;;;;;;6219323;23;20449;-95
2023/04/21 02:21:32;;;;;;;16.70;11.07;;;9.70;99.90;;;;;;6220420;23;20019;-95
2023/04/21 02:23:57;;;;;;;15.10;10.55;;;9.70;99.90;;;;;;6194183;23;20117;-95
2023/04/21 02:26:23;;;;;;;19.05;10.88;;;9.70;99.90;;;;;;6195448;23;20437;-96
2023/04/21 02:28:50;;;;;;;16.90;10.52;;;9.70;99.90;;;;;;6195168;23;20023;-94
2023/04/21 02:31:18;;;;;;;17.80;11.15;;;9.70;99.90;;;;;;6220061;23;20024;-95
2023/04/21 02:33:44;;;;;;;16.52;10.50;;;9.70;99.90;;;;;;6193369;23;20349;-95
2023/04/21 02:36:10;;;;;;;17.05;10.52;;;9.70;99.90;;;;;;6193918;23;20012;-94
2023/04/21 02:38:36;;;;;;;16.35;10.88;;;9.60;99.90;;;;;;6221664;23;20017;-94
2023/04/21 02:41:01;;;;;;;16.45;10.15;;;9.70;99.90;;;;;;6218858;23;20013;-93
2023/04/21 02:43:27;;;;;;;16.20;11.23;;;9.70;99.90;;;;;;6190618;23;20024;-94
2023/04/21 02:45:52;;;;;;;17.77;11.18;;;9.60;99.90;;;;;;6188638;23;20079;-94
2023/04/21 02:48:24;;;;;;;15.98;10.30;;;9.60;99.90;;;;;;6188912;23;20330;-95
2023/04/21 02:50:51;;;;;;;16.27;10.40;;;9.60;99.90;;;;;;6191147;23;20023;-94
2023/04/21 02:53:18;;;;;;;18.13;10.57;;;9.60;99.90;;;;;;6194655;23;20446;-95
2023/04/21 02:55:44;;;;;;;15.75;10.05;;;9.60;99.90;;;;;;6198199;23;20028;-95
2023/04/21 02:58:09;;;;;;;19.42;10.93;;;9.60;99.90;;;;;;6197162;23;20013;-93
2023/04/21 03:00:35;;;;;;;17.40;10.25;;;9.50;99.90;;;;;;6190511;23;20020;-94
2023/04/21 03:03:01;;;;;;;18.92;10.85;;;9.50;99.90;;;;;;6194077;23;20052;-95
2023/04/21 03:05:27;;;;;;;16.85;10.80;;;9.50;99.90;;;;;;6188763;23;20017;-95
2023/04/21 03:07:52;;;;;;;17.55;11.32;;;9.50;99.90;;;;;;6191381;23;20043;-94
2023/04/21 03:10:18;;;;;;;17.80;10.88;;;9.50;99.90;;;;;;6192406;23;20013;-95
2023/04/21 03:12:44;;;;;;;16.88;10.90;;;9.50;99.90;;;;;;6193073;23;20017;-95
2023/04/21 03:15:10;;;;;;;16.15;10.85;;;9.50;99.90;;;;;;6193861;23;20053;-95
2023/04/21 03:17:36;;;;;;;18.08;10.45;;;9.40;99.90;;;;;;6194229;23;20017;-95
2023/04/21 03:20:04;;;;;;;15.65;10.30;;;9.40;99.90;;;;;;6197086;23;20016;-95
2023/04/21 03:22:30;;;;;;;14.30;10.07;;;9.40;99.90;;;;;;6194175;23;20055;-95
2023/04/21 03:24:56;;;;;;;15.98;10.50;;;9.40;99.90;;;;;;6192164;23;20021;-95
2023/04/21 03:27:21;;;;;;;15.10;10.50;;;9.40;99.90;;;;;;6195236;23;20024;-94
2023/04/21 03:29:47;;;;;;;17.33;10.95;;;9.40;99.90;;;;;;6193520;23;20017;-94
2023/04/21 03:32:12;;;;;;;17.27;10.40;;;9.30;99.90;;;;;;6197197;23;20021;-95
2023/04/21 03:34:38;;;;;;;18.63;11.18;;;9.30;99.90;;;;;;6190010;23;20086;-93
2023/04/21 03:37:04;;;;;;;15.68;10.73;;;9.30;99.90;;;;;;6191566;23;20017;-95
2023/04/21 03:39:29;;;;;;;18.25;11.50;;;9.30;99.90;;;;;;6195398;23;20389;-93
2023/04/21 03:41:55;;;;;;;18.73;11.18;;;9.30;99.90;;;;;;6191957;23;20048;-95
2023/04/21 03:44:21;;;;;;;19.35;11.55;;;9.30;99.90;;;;;;6218347;23;20437;-94
2023/04/21 03:46:46;;;;;;;16.85;11.15;;;9.20;99.90;;;;;;6200280;23;20032;-96
2023/04/21 03:49:12;;;;;;;16.77;11.20;;;9.30;99.90;;;;;;6175632;23;20020;-96
2023/04/21 03:51:37;;;;;;;15.38;10.88;;;9.20;99.90;;;;;;6201711;23;20043;-95
2023/04/21 03:54:03;;;;;;;19.40;11.48;;;9.20;99.90;;;;;;6199551;23;20099;-94
2023/04/21 03:56:29;;;;;;;19.17;12.25;;;9.20;99.90;;;;;;6196577;23;20019;-95
2023/04/21 03:58:54;;;;;;;15.63;11.02;;;9.20;99.90;;;;;;6220270;23;20452;-95
2023/04/21 04:01:20;;;;;;;19.30;11.20;;;9.20;99.90;;;;;;6193813;23;20013;-94
2023/04/21 04:03:46;;;;;;;15.68;11.18;;;9.20;99.90;;;;;;6195696;23;20175;-94
2023/04/21 04:06:11;;;;;;;20.95;12.05;;;9.20;99.90;;;;;;6221839;23;20016;-93
2023/04/21 04:08:37;;;;;;;18.70;11.98;;;9.20;99.90;;;;;;6194077;23;20345;-94
2023/04/21 04:11:03;;;;;;;16.83;11.38;;;9.20;99.90;;;;;;6195992;23;20024;-96
2023/04/21 04:13:28;;;;;;;16.85;12.02;;;9.20;99.90;;;;;;6193589;23;20013;-94
2023/04/21 04:15:54;;;;;;;15.95;11.60;;;9.20;99.90;;;;;;6193262;23;20016;-94
2023/04/21 04:18:20;;;;;;;19.42;11.57;;;9.10;99.90;;;;;;6192470;23;20048;-94
2023/04/21 04:20:45;;;;;;;19.95;12.13;;;9.10;99.90;;;;;;6192255;23;20024;-94
2023/04/21 04:23:11;;;;;;;19.73;11.20;;;9.20;99.90;;;;;;6218095;23;20024;-94
2023/04/21 04:25:38;;;;;;;19.83;12.00;;;9.10;99.90;;;;;;6221472;23;20027;-93
2023/04/21 04:28:04;;;;;;;17.67;11.95;;;9.10;99.90;;;;;;6218979;23;20016;-92
2023/04/21 04:30:31;;;;;;;17.33;11.63;;;9.10;99.90;;;;;;6218839;23;20013;-94
2023/04/21 04:32:57;;;;;;;19.75;11.52;;;9.10;99.90;;;;;;6219645;23;20092;-94
2023/04/21 04:35:23;;;;;;;16.35;11.07;;;9.10;99.90;;;;;;6192578;23;20044;-93
2023/04/21 04:37:49;;;;;;;18.23;11.32;;;9.10;99.90;;;;;;6218407;23;20012;-93
2023/04/21 04:40:15;;;;;;;16.73;11.13;;;9.10;99.90;;;;;;6193037;23;20017;-94
2023/04/21 04:42:44;;;;;;;19.02;11.90;;;9.10;99.90;;;;;;6218748;23;20077;-94
2023/04/21 04:45:10;;;;;;;15.50;11.35;;;9.10;99.90;;;;;;6193645;23;20017;-94
2023/04/21 04:47:36;;;;;;;19.67;11.82;;;9.10;99.90;;;;;;6219092;23;20107;-94
2023/04/21 04:50:02;;;;;;;17.27;11.60;;;9.10;99.90;;;;;;6219264;23;20009;-95
2023/04/21 04:52:28;;;;;;;16.15;10.93;;;9.10;99.90;;;;;;6192922;23;20503;-94
2023/04/21 04:54:54;;;;;;;16.77;11.32;;;9.10;99.90;;;;;;6220644;23;20008;-95
2023/04/21 04:57:19;;;;;;;17.38;11.35;;;9.10;99.90;;;;;;6220642;23;20019;-95
2023/04/21 04:59:45;;;;;;;16.23;11.23;;;9.00;99.90;;;;;;6191792;23;20058;-95
2023/04/21 05:02:11;;;;;;;16.98;11.55;;;9.00;99.90;;;;;;6194325;23;20070;-95
2023/04/21 05:04:37;;;;;;;20.35;10.93;;;9.00;99.90;;;;;;6219644;23;20032;-93
2023/04/21 05:07:05;;;;;;;17.95;11.20;;;9.10;99.90;;;;;;6192374;23;20396;-96
2023/04/21 05:09:31;;;;;;;17.08;11.10;;;9.00;99.90;;;;;;6224289;23;20088;-96
2023/04/21 05:11:57;;;;;;;16.25;11.20;;;9.00;99.90;;;;;;6235950;23;20059;-96
2023/04/21 05:14:23;;;;;;;17.70;11.70;;;9.00;99.90;;;;;;6231103;23;20000;-96
2023/04/21 05:16:49;;;;;;;22.08;11.45;;;9.00;99.90;;;;;;6202412;23;20021;-96
2023/04/21 05:19:14;;;;;;;15.77;10.63;;;9.00;99.90;;;;;;6230404;23;20004;-96
2023/04/21 05:21:40;;;;;;;17.83;10.85;;;9.00;99.90;;;;;;6199317;23;20032;-94
2023/04/21 05:24:06;;;;;;;16.45;11.23;;;9.00;99.90;;;;;;6228233;23;20159;-95
2023/04/21 05:26:31;;;;;;;18.48;11.00;;;9.00;99.90;;;;;;6225817;23;20507;-93
2023/04/21 05:28:57;;;;;;;18.02;10.75;;;9.00;99.90;;;;;;6220381;23;20380;-93
2023/04/21 05:31:24;;;;;;;18.02;10.63;;;9.00;99.90;;;;;;6195118;23;20019;-91
2023/04/21 05:33:50;;;;;;;22.75;10.68;;;9.00;99.90;;;;;;6217304;23;20019;-92
2023/04/21 05:36:16;;;;;;;21.45;11.02;;;8.90;99.90;;;;;;6218456;23;20016;-95
2023/04/21 05:38:41;;;;;;;16.27;10.57;;;9.00;99.90;;;;;;6191912;23;20015;-92
2023/04/21 05:41:07;;;;;;;18.13;11.05;;;8.90;99.90;;;;;;6193137;23;20047;-96
2023/04/21 05:43:33;;;;;;;14.63;10.38;;;9.00;99.90;;;;;;6219200;23;20044;-93
2023/04/21 05:46:00;;;;;;;16.88;10.40;;;8.90;99.90;;;;;;6191172;23;20009;-90
2023/04/21 05:48:25;;;;;;;13.45;9.93;;;8.90;99.90;;;;;;6189728;23;20082;-89
2023/04/21 05:50:51;;;;;;;16.42;10.40;;;9.00;99.90;;;;;;6216368;23;20893;-88
2023/04/21 05:53:16;;;;;;;17.80;11.18;;;9.00;99.90;;;;;;6190018;23;20035;-91
2023/04/21 05:55:42;;;;;;;15.95;9.95;;;9.00;99.90;;;;;;6189792;23;20012;-91
2023/04/21 05:58:08;;;;;;;18.55;10.00;;;9.00;99.90;;;;;;6189515;23;20021;-87
2023/04/21 06:00:33;;;;;;;16.23;9.98;;;9.00;99.90;;;;;;6215235;23;20433;-90
2023/04/21 06:02:59;;;;;;;20.85;10.55;;;9.00;99.90;;;;;;6188450;23;20021;-89
2023/04/21 06:05:24;;;;;;;18.65;10.40;;;9.10;99.90;;;;;;6189546;23;20099;-90
2023/04/21 06:07:50;;;;;;;16.85;9.95;;;9.10;99.90;;;;;;6216353;23;20576;-90
2023/04/21 06:10:17;;;;;;;17.88;10.80;;;9.10;99.90;;;;;;6189023;23;20027;-89
2023/04/21 06:12:42;;;;;;;16.98;10.07;;;9.10;99.90;;;;;;6189141;23;20016;-89
2023/04/21 06:15:08;;;;;;;17.23;9.63;;;9.10;99.90;;;;;;6215963;23;20067;-89
2023/04/21 06:17:34;;;;;;;15.43;9.40;;;9.20;99.90;;;;;;6188939;23;20430;-90
2023/04/21 06:19:59;;;;;;;16.77;10.27;;;9.10;99.90;;;;;;6189797;23;20023;-90
2023/04/21 06:22:26;;;;;;;16.90;10.00;;;9.20;99.90;;;;;;6215800;23;20023;-89
2023/04/21 06:24:52;;;;;;;16.23;9.63;;;9.20;99.90;;;;;;6189619;23;20071;-90
2023/04/21 06:27:17;;;;;;;15.23;9.60;;;9.30;99.90;;;;;;6191591;23;20021;-88
2023/04/21 06:29:43;;;;;;;14.93;9.40;;;9.30;99.90;;;;;;6191059;23;20032;-89
2023/04/21 06:32:12;;;;;;;16.83;9.98;;;9.30;99.90;;;;;;6191049;23;20095;-91
2023/04/21 06:34:38;;;;;;;12.85;9.43;;;9.40;99.90;;;;;;6218432;23;20020;-89
2023/04/21 06:37:03;;;;;;;21.15;10.15;;;9.40;99.90;;;;;;6191122;23;20341;-91
2023/04/21 06:39:29;;;;;;;17.05;9.45;;;9.40;99.90;;;;;;6190619;23;20021;-90
2023/04/21 06:41:56;;;;;;;15.68;9.63;;;9.50;99.90;;;;;;6217979;23;20020;-90
2023/04/21 06:44:22;;;;;;;15.93;9.93;;;9.50;99.90;;;;;;6217451;23;20020;-89
2023/04/21 06:46:48;;;;;;;16.33;10.05;;;9.50;99.90;;;;;;6190737;23;20075;-90
2023/04/21 06:49:14;;;;;;;17.63;10.18;;;9.50;99.90;;;;;;6218082;23;20298;-90
2023/04/21 06:51:39;;;;;;;16.00;9.52;;;9.50;99.90;;;;;;6190719;23;20017;-89
2023/04/21 06:54:05;;;;;;;14.95;9.35;;;9.60;99.90;;;;;;6190887;23;20008;-90
2023/04/21 06:56:30;;;;;;;16.83;10.18;;;9.60;99.90;;;;;;6191241;23;20021;-88
2023/04/21 06:58:56;;;;;;;14.98;9.30;;;9.60;99.90;;;;;;6189740;23;20052;-90
2023/04/21 07:01:23;;;;;;;18.08;9.32;;;9.70;99.90;;;;;;6217763;23;20432;-89
2023/04/21 07:03:50;;;;;;;14.70;9.63;;;9.70;99.90;;;;;;6217623;23;20031;-90
2023/04/21 07:06:15;;;;;;;18.75;9.10;;;9.70;99.90;;;;;;6190154;23;20017;-89
2023/04/21 07:08:41;;;;;;;16.50;9.27;;;9.80;99.90;;;;;;6217495;23;20074;-88
2023/04/21 07:11:07;;;;;;;16.13;9.77;;;9.70;99.90;;;;;;6190454;23;20026;-88
2023/04/21 07:13:32;;;;;;;14.43;9.07;;;9.80;99.90;;;;;;6216821;23;20016;-89
2023/04/21 07:15:58;;;;;;;14.93;9.02;;;9.80;99.90;;;;;;6217886;23;20013;-89
2023/04/21 07:18:23;;;;;;;18.65;9.40;;;9.80;99.90;;;;;;6217711;23;20012;-90
2023/04/21 07:20:49;;;;;;;16.95;9.45;;;9.90;99.90;;;;;;6190055;23;20020;-89
2023/04/21 07:23:15;;;;;;;14.85;9.30;;;9.90;99.90;;;;;;6217599;23;20017;-90
2023/04/21 07:25:41;;;;;;;14.75;9.45;;;9.90;99.90;;;;;;6190573;23;20040;-88
2023/04/21 07:28:06;;;;;;;20.33;9.43;;;10.00;99.90;;;;;;6190517;23;20421;-90
2023/04/21 07:30:32;;;;;;;16.15;9.68;;;10.00;99.90;;;;;;6217679;23;20084;-90
2023/04/21 07:32:58;;;;;;;15.32;9.70;;;10.00;99.90;;;;;;6190820;23;20020;-89
2023/04/21 07:35:24;;;;;;;14.88;9.40;;;10.10;99.90;;;;;;6190025;23;20012;-89
2023/04/21 07:37:50;;;;;;;17.92;9.45;;;10.20;99.90;;;;;;6216687;23;20413;-89
2023/04/21 07:40:15;;;;;;;17.70;9.65;;;10.20;99.90;;;;;;6217008;23;20024;-89
2023/04/21 07:42:41;;;;;;;16.52;9.48;;;10.20;99.90;;;;;;6216126;23;20017;-89
2023/04/21 07:45:07;;;;;;;17.02;9.30;;;10.30;99.90;;;;;;6190514;23;20027;-89
2023/04/21 07:47:33;;;;;;;16.85;9.07;;;10.30;99.90;;;;;;6216817;23;20026;-89
2023/04/21 07:49:59;;;;;;;18.88;9.73;;;10.30;99.90;;;;;;6216976;23;20078;-89
2023/04/21 07:52:24;;;;;;;15.13;9.25;;;10.40;99.90;;;;;;6217022;23;20016;-88
2023/04/21 07:54:50;;;;;;;17.67;9.35;;;10.40;99.90;;;;;;6190321;23;20051;-90
2023/04/21 07:57:16;;;;;;;17.48;9.43;;;10.50;99.90;;;;;;6190352;23;20307;-89
2023/04/21 07:59:41;;;;;;;16.30;9.10;;;10.50;99.90;;;;;;6190402;23;20323;-88
2023/04/21 08:02:07;;;;;;;19.02;9.20;;;10.60;99.90;;;;;;6190000;23;20453;-89
2023/04/21 08:04:33;;;;;;;18.27;9.70;;;10.60;99.90;;;;;;6189140;23;20500;-88
2023/04/21 08:06:59;;;;;;;16.33;8.93;;;10.70;99.90;;;;;;6216834;23;20016;-88
2023/04/21 08:09:25;;;;;;;16.00;9.38;;;10.70;99.90;;;;;;6189442;23;20450;-89
2023/04/21 08:11:51;;;;;;;15.25;9.07;;;10.70;99.90;;;;;;6216559;23;20457;-89
2023/04/21 08:14:17;;;;;;;15.63;9.07;;;10.80;99.90;;;;;;6216873;23;20027;-89
2023/04/21 08:16:42;;;;;;;16.95;9.35;;;10.80;99.90;;;;;;6189137;23;20523;-89
2023/04/21 08:19:08;;;;;;;16.00;8.75;;;10.80;99.90;;;;;;6216838;23;20019;-90
2023/04/21 08:21:35;;;;;;;16.23;8.95;;;10.90;99.90;;;;;;6189194;23;20480;-89
2023/04/21 08:24:00;;;;;;;15.38;9.48;;;11.00;99.90;;;;;;6189610;23;20017;-90
2023/04/21 08:26:26;;;;;;;15.70;8.93;;;11.00;99.90;;;;;;6189957;23;20048;-89
2023/04/21 08:28:52;;;;;;;15.57;9.07;;;11.10;99.90;;;;;;6189506;23;20020;-89
2023/04/21 08:31:18;;;;;;;17.05;9.20;;;11.10;99.90;;;;;;6189265;23;20087;-89
2023/04/21 08:33:44;;;;;;;17.70;8.85;;;11.20;99.90;;;;;;6216444;23;20088;-89
2023/04/21 08:36:10;;;;;;;18.48;9.05;;;11.30;99.90;;;;;;6216485;23;20016;-89
2023/04/21 08:38:37;;;;;;;15.55;9.18;;;11.40;99.90;;;;;;6188872;23;20027;-89
2023/04/21 08:41:04;;;;;;;15.23;8.68;;;11.50;99.90;;;;;;6189959;23;20077;-88
2023/04/21 08:43:29;;;;;;;16.35;9.48;;;11.60;99.90;;;;;;6189218;23;20020;-89
2023/04/21 08:45:55;;;;;;;15.18;9.70;;;11.60;99.90;;;;;;6214992;23;20437;-89
2023/04/21 08:48:22;;;;;;;19.38;9.27;;;11.70;99.90;;;;;;6216193;23;20024;-90
2023/04/21 08:50:50;;;;;;;15.80;9.43;;;11.80;99.90;;;;;;6216071;23;20087;-89
2023/04/21 08:53:16;;;;;;;16.30;8.88;;;11.90;99.90;;;;;;6189688;23;20017;-90
2023/04/21 08:55:42;;;;;;;15.13;8.48;;;12.00;99.90;;;;;;6216547;23;20016;-90
2023/04/21 08:58:08;;;;;;;17.58;8.68;;;12.10;99.90;;;;;;6216532;23;20013;-90
2023/04/21 09:00:37;;;;;;;18.02;8.60;;;12.10;99.90;;;;;;6215421;23;20472;-90
2023/04/21 09:03:06;;;;;;;17.55;9.40;;;12.20;99.90;;;;;;6216357;23;20013;-90
2023/04/21 09:05:33;;;;;;;17.20;8.80;;;12.30;99.90;;;;;;6215595;23;20446;-90
2023/04/21 09:08:13;;;;;;;14.45;9.07;;;12.40;99.90;;;;;;6217133;23;20085;-91
2023/04/21 09:10:49;;;;;;;15.48;8.90;;;12.40;99.90;;;;;;6189551;23;20020;-91
2023/04/21 09:13:19;;;;;;;15.80;8.80;;;12.50;99.90;;;;;;6189203;23;20016;-91
2023/04/21 09:15:47;;;;;;;15.23;8.70;;;12.50;99.90;;;;;;6216365;23;20365;-90
2023/04/21 09:18:16;;;;;;;16.15;9.27;;;12.60;99.90;;;;;;6190031;23;20015;-90
2023/04/21 09:20:43;;;;;;;17.65;9.40;;;12.60;99.90;;;;;;6189076;23;20017;-91
2023/04/21 09:23:10;;;;;;;16.80;9.02;;;12.70;99.90;;;;;;6216067;23;20017;-91
2023/04/21 09:25:38;;;;;;;14.27;8.50;;;12.80;99.90;;;;;;6219053;23;20008;-90
2023/04/21 09:28:08;;;;;;;18.27;9.25;;;12.90;99.90;;;;;;6216349;23;20040;-89
2023/04/21 09:30:39;;;;;;;15.25;9.20;;;12.90;99.90;;;;;;6189672;23;20024;-90
2023/04/21 09:33:05;;;;;;;14.38;8.80;;;12.90;99.90;;;;;;6190211;23;20017;-91
2023/04/21 09:35:38;;;;;;;17.75;8.98;;;13.00;99.90;;;;;;6215895;23;20039;-89
2023/04/21 09:38:08;;;;;;;;;;;13.10;99.90;;;;;;6216443;23;20023;-90
2023/04/21 09:40:34;;;;;;;17.13;8.60;;;13.10;99.90;;;;;;6188347;23;19916;-90
2023/04/21 09:42:59;;;;;;;16.48;8.90;;;13.10;99.90;;;;;;6215279;23;20019;-88
2023/04/21 09:45:26;;;;;;;16.42;8.32;;;13.20;99.90;;;;;;6215566;23;20099;-88
2023/04/21 09:47:55;;;;;;;16.08;8.85;;;13.30;99.90;;;;;;6187699;23;20016;-89
2023/04/21 09:50:22;;;;;;;13.35;8.50;;;13.30;99.90;;;;;;6182399;23;20453;-88
2023/04/21 09:52:51;;;;;;;15.98;8.68;;;13.40;99.90;;;;;;6185955;23;20331;-88
2023/04/21 09:55:18;;;;;;;16.98;8.43;;;13.40;99.90;;;;;;6214078;23;20441;-87
2023/04/21 09:57:47;;;;;;;16.88;8.95;;;13.50;99.90;;;;;;6187568;23;20017;-86
2023/04/21 10:00:14;;;;;;;15.13;8.88;;;13.60;99.90;;;;;;6213553;23;20100;-87
2023/04/21 10:02:48;;;;;;;19.10;8.80;;;13.60;99.90;;;;;;6186431;23;20454;-88
2023/04/21 10:05:14;;;;;;;17.40;8.95;;;13.60;99.90;;;;;;6213576;23;20016;-87
2023/04/21 10:07:40;;;;;;;12.05;8.85;;;13.70;99.90;;;;;;6185801;23;20100;-88
2023/04/21 10:10:08;;;;;;;18.40;9.30;;;13.70;99.90;;;;;;6185862;23;20333;-88
2023/04/21 10:12:34;;;;;;;16.15;8.65;;;13.80;99.90;;;;;;6186307;23;20016;-87
2023/04/21 10:15:04;;;;;;;14.57;8.50;;;13.80;99.70;;;;;;6186251;23;20043;-87
2023/04/21 10:17:35;;;;;;;13.75;8.75;;;13.90;99.80;;;;;;6185966;23;20070;-88
2023/04/21 10:20:06;;;;;;;15.63;8.68;;;13.90;99.70;;;;;;6186531;23;20153;-88
2023/04/21 10:22:33;;;;;;;14.63;8.90;;;14.00;99.70;;;;;;6212799;23;20013;-88
2023/04/21 10:25:00;;;;;;;15.45;8.82;;;14.00;99.70;;;;;;6185288;23;20009;-89
2023/04/21 10:27:35;;;;;;;12.90;8.32;;;14.10;99.70;;;;;;6212821;23;20501;-88
2023/04/21 10:30:17;;;;;;;12.25;8.40;;;14.20;99.70;;;;;;6212468;23;20352;-88
2023/04/21 10:32:44;;;;;;;18.13;9.38;;;14.30;99.60;;;;;;6214553;23;20066;-89
2023/04/21 10:35:16;;;;;;;13.85;9.02;;;14.40;99.70;;;;;;6214528;23;20440;-88
2023/04/21 10:37:42;;;;;;;19.38;9.38;;;14.40;99.60;;;;;;6213150;23;20012;-86
2023/04/21 10:40:28;;;;;;;13.77;9.27;;;14.50;99.50;;;;;;6214822;23;20058;-88
2023/04/21 10:43:37;;;;;;;17.27;9.15;;;14.60;99.00;;;;;;6172179;22;20053;-89
2023/04/21 10:46:33;;;;;;;15.07;9.13;;;14.60;99.00;;;;;;6189852;23;20092;-88
2023/04/21 10:49:20;;;;;;;19.05;9.45;;;14.70;99.00;;;;;;6182881;23;20021;-88
2023/04/21 10:54:27;;;;;;;15.30;9.50;;;14.90;98.80;;;;;;6183583;23;20349;-88
2023/04/21 10:56:54;;;;;;;16.48;9.85;;;15.00;99.00;;;;;;6181395;23;20016;-88
2023/04/21 10:59:20;;;;;;;14.13;9.25;;;15.10;98.60;;;;;;6183514;23;20010;-87
2023/04/21 11:01:46;;;;;;;16.33;9.85;;;15.30;98.30;;;;;;6182380;23;20568;-87
2023/04/21 11:04:13;;;;;;;16.88;10.30;;;15.40;98.20;;;;;;6181219;23;20056;-88
2023/04/21 11:06:39;;;;;;;13.30;9.60;;;15.40;98.10;;;;;;6182706;23;20108;-88
2023/04/21 11:09:04;;;;;;;16.17;9.60;;;15.50;98.10;;;;;;6182290;23;20462;-88
2023/04/21 11:11:30;;;;;;;18.40;9.43;;;15.60;98.10;;;;;;6183208;23;20016;-88
2023/04/21 11:13:59;;;;;;;16.30;9.27;;;15.70;98.10;;;;;;6182581;23;20323;-87
2023/04/21 11:16:24;;;;;;;15.57;9.13;;;15.80;98.10;;;;;;6183982;23;20466;-87
2023/04/21 11:18:50;;;;;;;15.57;8.40;;;15.80;98.10;;;;;;6185804;23;20019;-88
2023/04/21 11:21:18;;;;;;;13.55;9.23;;;15.90;97.80;;;;;;6183489;23;20434;-88
2023/04/21 11:23:55;;;;;;;14.00;8.43;;;15.90;97.60;;;;;;6184992;23;20016;-87
2023/04/21 11:26:37;;;;;;;12.93;8.07;;;16.00;96.90;;;;;;6183499;23;20068;-89
2023/04/21 11:29:07;;;;;;;12.90;8.10;;;16.10;96.30;;;;;;6182997;23;20024;-87
2023/04/21 11:31:35;;;;;;;13.57;8.90;;;16.20;96.20;;;;;;6183122;23;20017;-87
2023/04/21 11:34:04;;;;;;;13.43;9.98;;;16.40;96.60;;;;;;6184686;23;20021;-88
2023/04/21 11:36:32;;;;;;;15.07;9.38;;;16.40;97.30;;;;;;6183655;23;20087;-88
2023/04/21 11:38:58;;;;;;;14.32;7.38;;;16.40;97.70;;;;;;6184031;23;20013;-87
2023/04/21 11:41:24;;;;;;;14.40;7.18;;;16.40;96.90;;;;;;6184410;23;20399;-87
2023/04/21 11:43:51;;;;;;;13.00;7.30;;;16.50;95.60;;;;;;6182175;23;20024;-87
2023/04/21 11:46:27;;;;;;;11.02;7.53;;;16.50;94.80;;;;;;6182867;23;20013;-89
2023/04/21 11:49:10;;;;;;;16.33;7.38;;;16.60;94.70;;;;;;6183118;23;20024;-91
2023/04/21 11:51:40;;;;;;;17.02;7.05;;;16.70;94.20;;;;;;6184993;23;20080;-90
2023/04/21 11:54:12;;;;;;;15.45;6.90;;;16.80;93.60;;;;;;6183179;23;20013;-90
2023/04/21 11:56:39;;;;;;;12.90;6.95;;;16.90;93.70;;;;;;6185960;23;20017;-90
2023/04/21 11:59:10;;;;;;;12.50;6.40;;;16.90;93.30;;;;;;6188670;23;20450;-90
2023/04/21 12:01:46;;;;;;;10.63;7.15;;;17.00;93.30;;;;;;6184328;23;20343;-90
2023/04/21 12:04:16;;;;;;;13.07;6.97;;;17.10;93.90;;;;;;6185960;23;20020;-89
2023/04/21 12:06:44;;;;;;;13.85;5.82;;;17.10;94.90;;;;;;6183775;23;20385;-89
2023/04/21 12:10:06;;;;;;;10.02;5.72;;;17.10;93.60;;;;;;6185175;23;20457;-93
2023/04/21 12:18:47;;;;;;;;;;;;;;;;;;;;;
2023/04/21 12:21:52;;;;;;;11.82;5.03;;;17.40;94.30;;;;;;6177254;23;20017;-92
2023/04/21 12:24:51;;;;;;;10.77;5.22;;;17.40;93.70;;;;;;6186550;23;20017;-95
2023/04/21 12:30:40;;;;;;;14.27;5.28;;;17.40;94.20;;;;;;6173018;23;20052;-95
2023/04/21 12:33:07;;;;;;;11.35;4.93;;;17.50;93.70;;;;;;6186876;23;20146;-94
2023/04/21 12:35:33;;;;;;;9.27;4.85;;;17.50;93.60;;;;;;6185980;23;20013;-92
2023/04/21 12:38:01;;;;;;;12.40;3.92;;;17.60;93.50;;;;;;6186493;23;20059;-94
2023/04/21 12:40:31;;;;;;;10.82;5.05;;;17.50;91.50;;;;;;6187056;23;20017;-94
2023/04/21 12:43:15;;;;;;;11.68;4.40;;;17.60;92.90;;;;;;6185861;23;20017;-95
2023/04/21 12:46:12;;;;;;;;;;;;;;;;;;;;;
2023/04/21 12:49:06;;;;;;;8.10;3.95;;;17.60;92.40;;;;;;6180131;23;20021;-94
2023/04/21 12:52:01;;;;;;;9.48;4.30;;;17.60;92.40;;;;;;6184873;23;20017;-93
2023/04/21 12:54:29;;;;;;;15.35;4.07;;;17.60;91.60;;;;;;6184995;23;20021;-92